Time;durP1;ratioP1;P1;durP2;ratioP2;P2;SDS_P1;SDS_P2;PMS_P1;PMS_P2;Temp;Humidity;BMP_temperature;BMP_pressure;BME280_temperature;BME280_humidity;BME280_pressure;Samples;Min_cycle;Max_cycle;Signal;HPM_P1;HPM_P2
2022/09/04 00:02:02;;;;;;;4.93;3.72;;;;;;;16.04;88.42;98272.75;7384683;19;20022;-70
2022/09/04 00:04:34;;;;;;;5.00;3.67;;;;;;;16.02;88.58;98272.94;7380350;19;20122;-70
2022/09/04 00:08:07;;;;;;;5.75;3.80;;;;;;;15.85;88.76;98286.75;7385754;19;20014;-70
2022/09/04 00:10:56;;;;;;;5.03;3.95;;;;;;;15.77;88.78;98279.69;7381458;19;20112;-69
2022/09/04 00:13:44;;;;;;;6.47;4.20;;;;;;;15.66;88.82;98277.50;7388201;19;20022;-70
2022/09/04 00:16:22;;;;;;;6.03;4.47;;;;;;;15.66;88.71;98288.19;7384976;19;20014;-70
2022/09/04 00:19:01;;;;;;;8.52;4.35;;;;;;;15.59;88.98;98282.78;7385618;19;20692;-70
2022/09/04 00:22:00;;;;;;;5.15;3.92;;;;;;;15.57;89.01;98288.31;7380011;19;20082;-69
2022/09/04 00:24:55;;;;;;;6.32;4.38;;;;;;;15.47;89.34;98284.31;7384934;19;20022;-70
2022/09/04 00:27:22;;;;;;;7.28;4.30;;;;;;;15.46;89.48;98286.16;7387999;19;20377;-70
2022/09/04 00:30:06;;;;;;;5.63;4.25;;;;;;;15.42;89.70;98289.38;7381683;19;20021;-69
2022/09/04 00:33:07;;;;;;;6.80;4.65;;;;;;;15.37;89.72;98290.75;7386543;19;20023;-70
2022/09/04 00:35:39;;;;;;;6.88;4.47;;;;;;;15.35;89.73;98292.78;7386130;19;20699;-70
2022/09/04 00:38:29;;;;;;;5.05;4.20;;;;;;;15.40;89.42;98291.38;7379651;19;20401;-69
2022/09/04 00:41:03;;;;;;;8.90;3.60;;;;;;;15.39;89.22;98284.41;7380975;19;20757;-70
2022/09/04 00:43:54;;;;;;;5.72;3.67;;;;;;;15.41;88.96;98293.88;7386983;19;20018;-70
2022/09/04 00:46:46;;;;;;;3.67;3.15;;;;;;;15.44;88.92;98296.16;7384564;19;20026;-69
2022/09/04 00:49:46;;;;;;;5.00;3.53;;;;;;;15.47;88.95;98294.97;7383676;19;20014;-70
2022/09/04 00:52:37;;;;;;;3.45;3.15;;;;;;;15.51;89.10;98309.59;7385454;19;20541;-69
2022/09/04 00:55:14;;;;;;;4.70;3.35;;;;;;;15.56;89.16;98304.47;7383364;19;20021;-70
2022/09/04 00:57:47;;;;;;;3.40;3.10;;;;;;;15.59;89.33;98304.13;7381364;19;20018;-70
2022/09/04 01:00:18;;;;;;;5.03;3.83;;;;;;;15.62;89.36;98309.06;7382288;19;20014;-70
2022/09/04 01:03:02;;;;;;;7.22;3.70;;;;;;;15.62;89.42;98303.75;7386548;19;20394;-70
2022/09/04 01:05:39;;;;;;;5.55;3.53;;;;;;;15.61;89.17;98310.06;7383197;19;20011;-70
2022/09/04 01:08:19;;;;;;;6.95;4.20;;;;;;;15.52;89.69;98305.88;7379317;19;20444;-69
2022/09/04 01:11:07;;;;;;;7.18;4.47;;;;;;;15.43;89.81;98313.19;7377564;19;20339;-69
2022/09/04 01:14:28;;;;;;;5.47;4.38;;;;;;;15.35;90.09;98311.47;7379997;19;20414;-69
2022/09/04 01:17:28;;;;;;;6.55;4.80;;;;;;;15.28;90.09;98315.88;7389153;19;20021;-70
2022/09/04 01:19:57;;;;;;;10.20;4.32;;;;;;;15.34;89.66;98311.63;7390143;19;20014;-69
2022/09/04 01:22:45;;;;;;;8.80;4.28;;;;;;;15.34;89.61;98320.44;7391489;19;20018;-69
2022/09/04 01:25:28;;;;;;;6.43;3.70;;;;;;;15.38;89.49;98326.25;7388740;19;20349;-70
2022/09/04 01:28:13;;;;;;;7.28;3.63;;;;;;;15.36;89.54;98323.75;7389908;19;20026;-69
2022/09/04 01:30:46;;;;;;;6.63;4.38;;;;;;;15.36;89.56;98333.59;7389257;19;20018;-69
2022/09/04 01:33:43;;;;;;;6.53;3.78;;;;;;;15.35;89.48;98331.97;7390338;19;20014;-70
2022/09/04 01:36:18;;;;;;;5.15;3.92;;;;;;;15.37;89.32;98338.72;7387824;19;20022;-69
2022/09/04 01:38:52;;;;;;;4.97;4.03;;;;;;;15.33;89.48;98332.13;7391183;19;20365;-70
2022/09/04 01:41:28;;;;;;;5.82;4.05;;;;;;;15.33;89.23;98334.81;7388780;19;20020;-70
2022/09/04 01:43:59;;;;;;;6.43;4.25;;;;;;;15.27;89.23;98335.56;7392156;19;20018;-70
2022/09/04 01:46:40;;;;;;;6.20;4.60;;;;;;;15.18;89.39;98331.34;7386708;19;20378;-70
2022/09/04 01:49:29;;;;;;;5.83;4.37;;;;;;;15.14;89.46;98338.88;7390752;19;20026;-70
2022/09/04 01:52:01;;;;;;;4.70;4.25;;;;;;;15.09;89.36;98343.94;7393863;19;20033;-70
2022/09/04 01:54:46;;;;;;;5.50;4.15;;;;;;;15.07;89.74;98335.31;7389606;19;20011;-69
2022/09/04 01:57:30;;;;;;;6.78;4.13;;;;;;;15.01;89.61;98344.03;7386022;19;20484;-69
2022/09/04 02:00:13;;;;;;;9.48;5.43;;;;;;;14.99;89.78;98351.38;7388711;19;20015;-70
2022/09/04 02:02:40;;;;;;;4.45;4.00;;;;;;;14.96;89.60;98351.75;7389696;19;20025;-69
2022/09/04 02:05:12;;;;;;;6.57;4.63;;;;;;;14.95;89.43;98355.41;7390299;19;20405;-70
2022/09/04 02:07:46;;;;;;;7.82;4.88;;;;;;;14.94;89.69;98351.09;7390627;19;20021;-69
2022/09/04 02:10:33;;;;;;;7.22;4.70;;;;;;;14.89;89.54;98358.81;7389582;19;20022;-70
2022/09/04 02:13:34;;;;;;;6.53;3.65;;;;;;;14.95;89.19;98349.25;7389745;19;20031;-70
2022/09/04 02:16:23;;;;;;;5.47;3.75;;;;;;;14.93;89.17;98350.28;7390363;19;20122;-69
2022/09/04 02:19:35;;;;;;;6.53;4.97;;;;;;;14.82;89.52;98349.91;7386927;19;20015;-70
2022/09/04 02:22:05;;;;;;;5.00;4.50;;;;;;;14.80;89.64;98355.44;7391621;19;20011;-70
2022/09/04 02:24:39;;;;;;;10.95;4.78;;;;;;;14.78;89.84;98360.09;7392487;19;20024;-70
2022/09/04 02:27:37;;;;;;;6.07;5.20;;;;;;;14.76;89.91;98364.78;7383326;19;20029;-69
2022/09/04 02:30:10;;;;;;;5.07;4.50;;;;;;;14.80;89.71;98359.94;7382167;19;20033;-69
2022/09/04 02:33:04;;;;;;;5.90;4.80;;;;;;;14.83;89.68;98357.72;7390560;19;20022;-70
2022/09/04 02:35:45;;;;;;;5.95;5.32;;;;;;;14.72;89.61;98352.88;7387838;19;20018;-70
2022/09/04 02:38:29;;;;;;;6.15;5.55;;;;;;;14.67;90.07;98360.56;7383610;19;20022;-69
2022/09/04 02:40:57;;;;;;;4.97;4.47;;;;;;;14.70;89.95;98354.88;7387648;19;20014;-69
2022/09/04 02:43:59;;;;;;;6.60;5.20;;;;;;;14.69;89.70;98355.84;7390255;19;20414;-69
2022/09/04 02:46:25;;;;;;;6.80;4.60;;;;;;;14.70;89.56;98357.53;7387344;19;20018;-70
2022/09/04 02:49:07;;;;;;;6.20;4.63;;;;;;;14.67;89.51;98360.56;7389907;19;20018;-69
2022/09/04 02:51:44;;;;;;;5.22;3.97;;;;;;;14.72;89.34;98363.50;7383737;19;20018;-70
2022/09/04 02:54:49;;;;;;;6.90;4.65;;;;;;;14.73;89.48;98353.69;7387145;19;20015;-68
2022/09/04 02:58:06;;;;;;;5.60;4.68;;;;;;;14.71;89.64;98362.66;7386487;19;20011;-69
2022/09/04 03:00:53;;;;;;;4.88;4.38;;;;;;;14.72;89.75;98358.19;7381315;19;20018;-69
2022/09/04 03:03:28;;;;;;;6.40;5.32;;;;;;;14.65;90.24;98362.56;7384698;19;20033;-69
2022/09/04 03:06:03;;;;;;;8.15;4.85;;;;;;;14.59;90.15;98363.31;7387352;19;20018;-69
2022/09/04 03:08:34;;;;;;;5.32;4.45;;;;;;;14.60;89.98;98364.97;7384511;19;20635;-69
2022/09/04 03:11:07;;;;;;;5.63;4.93;;;;;;;14.60;89.74;98365.78;7384535;19;20090;-69
2022/09/04 03:13:56;;;;;;;6.05;4.80;;;;;;;14.57;89.86;98368.81;7387577;19;20029;-69
2022/09/04 03:16:47;;;;;;;7.80;5.50;;;;;;;14.55;90.21;98370.00;7388262;19;20018;-68
2022/09/04 03:19:18;;;;;;;7.47;5.43;;;;;;;14.63;90.23;98364.59;7385929;19;20027;-69
2022/09/04 03:21:54;;;;;;;8.88;6.13;;;;;;;14.54;90.36;98373.69;7386181;19;20361;-69
2022/09/04 03:24:54;;;;;;;6.82;5.80;;;;;;;14.60;90.28;98375.59;7382078;19;20015;-69
2022/09/04 03:27:22;;;;;;;8.65;6.35;;;;;;;14.52;90.42;98378.31;7385583;19;20504;-69
2022/09/04 03:30:07;;;;;;;6.20;5.57;;;;;;;14.54;90.06;98376.34;7387968;19;20014;-70
2022/09/04 03:32:55;;;;;;;5.95;5.32;;;;;;;14.53;90.09;98369.34;7388102;19;20018;-70
2022/09/04 03:35:32;;;;;;;7.53;5.15;;;;;;;14.60;89.92;98370.28;7383954;19;20022;-70
2022/09/04 03:38:22;;;;;;;9.55;5.85;;;;;;;14.50;90.06;98375.81;7378839;19;20014;-69
2022/09/04 03:40:59;;;;;;;6.95;5.55;;;;;;;14.42;90.07;98381.22;7383605;19;20372;-70
2022/09/04 03:43:49;;;;;;;6.15;5.15;;;;;;;14.44;90.11;98376.56;7384438;19;20028;-70
2022/09/04 03:46:39;;;;;;;5.75;5.22;;;;;;;14.47;90.05;98379.66;7382687;19;20018;-69
2022/09/04 03:49:13;;;;;;;5.60;4.70;;;;;;;14.49;90.06;98383.00;7386649;19;20557;-68
2022/09/04 03:52:08;;;;;;;5.80;5.18;;;;;;;14.38;90.11;98382.59;7388132;19;20014;-69
2022/09/04 03:54:57;;;;;;;5.00;4.50;;;;;;;14.33;90.15;98395.63;7386001;19;20011;-69
2022/09/04 03:57:29;;;;;;;7.80;5.30;;;;;;;14.23;90.15;98398.53;7383394;19;20017;-69
2022/09/04 04:00:02;;;;;;;5.18;4.72;;;;;;;14.25;89.79;98388.53;7385882;19;20351;-69
2022/09/04 04:02:53;;;;;;;5.00;4.50;;;;;;;14.25;89.78;98394.69;7383214;19;20039;-69
2022/09/04 04:05:37;;;;;;;7.15;4.47;;;;;;;14.22;89.73;98391.56;7387289;19;20372;-70
2022/09/04 04:08:22;;;;;;;5.32;4.82;;;;;;;14.18;89.63;98398.22;7386996;19;20017;-70
2022/09/04 04:11:11;;;;;;;6.20;4.82;;;;;;;14.20;90.00;98398.88;7383530;19;20019;-69
2022/09/04 04:14:03;;;;;;;5.97;4.97;;;;;;;14.11;89.95;98397.28;7382876;19;20007;-69
2022/09/04 04:16:50;;;;;;;5.53;4.43;;;;;;;14.14;89.60;98404.91;7385999;19;20014;-68
2022/09/04 04:19:43;;;;;;;5.60;5.10;;;;;;;14.02;89.81;98400.00;7384192;19;20018;-69
2022/09/04 04:22:40;;;;;;;6.80;5.70;;;;;;;13.96;90.24;98408.69;7387882;19;20015;-69
2022/09/04 04:25:24;;;;;;;6.13;5.32;;;;;;;13.99;90.38;98413.66;7385727;19;20053;-70
2022/09/04 04:28:18;;;;;;;7.00;5.88;;;;;;;13.95;90.54;98412.34;7382869;19;20703;-69
2022/09/04 04:30:53;;;;;;;7.60;5.72;;;;;;;13.95;90.34;98416.84;7379725;19;20015;-69
2022/09/04 04:33:47;;;;;;;6.25;5.63;;;;;;;13.88;90.45;98422.03;7384935;19;20022;-69
2022/09/04 04:36:33;;;;;;;8.13;5.88;;;;;;;13.85;90.59;98425.06;7384325;19;20025;-69
2022/09/04 04:39:08;;;;;;;6.45;5.45;;;;;;;13.80;90.74;98430.91;7385911;19;20021;-68
2022/09/04 04:42:05;;;;;;;10.23;6.57;;;;;;;13.79;90.98;98439.03;7385250;19;20021;-70
2022/09/04 04:47:55;;;;;;;13.57;6.55;;;;;;;14.02;91.12;98445.22;7384335;19;20011;-69
2022/09/04 04:51:04;;;;;;;12.63;7.03;;;;;;;14.07;91.37;98451.84;7384475;19;20018;-69
2022/09/04 04:53:56;;;;;;;11.50;6.90;;;;;;;14.21;91.37;98456.41;7392471;19;20489;-69
2022/09/04 04:57:02;;;;;;;44.30;7.47;;;;;;;14.26;91.08;98456.69;7391654;19;20028;-68
2022/09/04 04:59:33;;;;;;;31.92;7.35;;;;;;;14.08;91.15;98458.81;7388585;19;20291;-69
2022/09/04 05:02:12;;;;;;;20.02;5.80;;;;;;;14.01;91.23;98458.72;7392233;19;20481;-69
2022/09/04 05:05:05;;;;;;;23.40;6.43;;;;;;;13.91;91.11;98461.59;7384758;19;20410;-68
2022/09/04 05:08:01;;;;;;;30.25;6.28;;;;;;;13.86;91.33;98471.91;7386455;19;20017;-69
2022/09/04 05:10:50;;;;;;;40.47;7.22;;;;;;;13.80;91.42;98476.09;7393085;19;20022;-70
2022/09/04 05:13:35;;;;;;;28.08;6.72;;;;;;;13.76;91.55;98472.13;7391692;19;20596;-69
2022/09/04 05:16:14;;;;;;;14.35;7.07;;;;;;;13.77;91.41;98479.09;7386634;19;20011;-69
2022/09/04 05:19:01;;;;;;;11.38;6.78;;;;;;;13.80;91.58;98478.75;7385532;19;20006;-69
2022/09/04 05:21:36;;;;;;;10.68;7.47;;;;;;;13.84;91.58;98489.88;7390103;19;20014;-69
2022/09/04 05:24:09;;;;;;;11.10;7.30;;;;;;;13.84;91.64;98492.53;7391006;19;20342;-70
2022/09/04 05:26:51;;;;;;;12.35;8.57;;;;;;;13.85;91.73;98496.88;7388046;19;20014;-69
2022/09/04 05:29:24;;;;;;;9.68;7.38;;;;;;;13.93;91.68;98499.47;7392245;19;20037;-69
2022/09/04 05:32:03;;;;;;;12.73;8.18;;;;;;;14.11;91.74;98509.84;7390992;19;20019;-69
2022/09/04 05:35:02;;;;;;;9.68;6.97;;;;;;;14.27;91.74;98506.28;7390262;19;20018;-69
2022/09/04 05:37:42;;;;;;;11.27;7.60;;;;;;;14.41;91.71;98510.00;7390275;19;20011;-69
2022/09/04 05:40:23;;;;;;;10.57;7.47;;;;;;;14.39;91.76;98515.50;7385462;19;20387;-70
2022/09/04 05:43:01;;;;;;;12.43;7.55;;;;;;;14.31;91.73;98518.22;7388774;19;20030;-68
2022/09/04 05:45:43;;;;;;;8.48;6.70;;;;;;;14.50;91.49;98525.72;7389661;19;20494;-69
2022/09/04 05:48:19;;;;;;;13.52;8.20;;;;;;;14.42;91.44;98523.13;7386982;19;20018;-69
2022/09/04 05:51:04;;;;;;;7.95;6.70;;;;;;;14.56;91.31;98528.72;7385027;19;20033;-68
2022/09/04 05:53:49;;;;;;;11.80;8.35;;;;;;;14.52;91.53;98535.38;7387798;19;20014;-68
2022/09/04 05:56:31;;;;;;;9.85;8.20;;;;;;;14.41;91.67;98537.44;7387818;19;20021;-69
2022/09/04 05:59:07;;;;;;;10.98;9.20;;;;;;;14.36;91.66;98539.81;7388144;19;20018;-68
2022/09/04 06:01:57;;;;;;;13.73;9.55;;;;;;;14.38;91.79;98540.47;7386385;19;20035;-68
2022/09/04 06:04:45;;;;;;;11.43;9.10;;;;;;;14.42;91.93;98541.75;7389626;19;20042;-70
2022/09/04 06:07:26;;;;;;;11.13;8.75;;;;;;;14.49;91.77;98541.88;7386245;19;20014;-69
2022/09/04 06:10:02;;;;;;;13.57;9.68;;;;;;;14.63;91.92;98548.31;7388181;19;20025;-69
2022/09/04 06:12:51;;;;;;;11.65;9.38;;;;;;;14.66;91.90;98548.78;7384399;19;20043;-69
2022/09/04 06:15:39;;;;;;;11.93;9.88;;;;;;;14.76;91.97;98553.88;7391522;19;20035;-69
2022/09/04 06:18:15;;;;;;;12.95;9.80;;;;;;;14.85;92.02;98563.47;7389665;19;20010;-69
2022/09/04 06:20:58;;;;;;;9.85;8.85;;;;;;;14.99;91.79;98553.03;7386852;19;20023;-69
2022/09/04 06:23:56;;;;;;;9.88;8.35;;;;;;;15.06;91.82;98562.81;7390331;19;20019;-69
2022/09/04 06:26:56;;;;;;;11.07;8.20;;;;;;;15.36;91.24;98562.84;7387427;19;20018;-69
2022/09/04 06:29:36;;;;;;;10.05;8.35;;;;;;;15.33;90.96;98566.72;7386607;19;20014;-70
2022/09/04 06:32:13;;;;;;;11.13;7.97;;;;;;;15.49;90.81;98565.72;7385880;19;20042;-69
2022/09/04 06:34:47;;;;;;;8.60;7.70;;;;;;;15.39;90.37;98572.31;7387984;19;20010;-70
2022/09/04 06:37:32;;;;;;;9.07;7.47;;;;;;;15.36;90.43;98573.50;7390026;19;20019;-70
2022/09/04 06:40:14;;;;;;;7.40;6.57;;;;;;;15.58;90.16;98574.44;7385695;19;20010;-70
2022/09/04 06:42:55;;;;;;;10.02;6.65;;;;;;;15.77;90.08;98576.63;7384964;19;20014;-70
2022/09/04 06:45:21;;;;;;;8.73;6.93;;;;;;;15.91;90.12;98580.28;7387471;19;20787;-70
2022/09/04 06:48:07;;;;;;;8.05;7.03;;;;;;;16.00;90.01;98579.16;7388916;19;20021;-70
2022/09/04 06:50:47;;;;;;;7.63;6.30;;;;;;;16.13;89.74;98583.84;7387453;19;20588;-70
2022/09/04 06:54:02;;;;;;;6.38;5.72;;;;;;;16.26;89.73;98582.38;7389652;19;20018;-70
2022/09/04 06:57:09;;;;;;;5.93;5.20;;;;;;;16.30;89.50;98581.81;7387763;19;20010;-71
2022/09/04 06:59:58;;;;;;;7.82;6.65;;;;;;;16.35;89.31;98589.25;7384711;19;20019;-71
2022/09/04 07:02:27;;;;;;;5.50;4.88;;;;;;;16.45;89.11;98593.25;7388621;19;20028;-70
2022/09/04 07:05:13;;;;;;;6.82;5.55;;;;;;;16.47;88.75;98587.75;7384721;19;20019;-70
2022/09/04 07:08:01;;;;;;;6.93;5.63;;;;;;;16.50;88.01;98591.88;7388486;19;20357;-70
2022/09/04 07:10:42;;;;;;;6.72;5.78;;;;;;;16.54;87.76;98591.34;7387037;19;20022;-70
2022/09/04 07:13:22;;;;;;;5.93;5.07;;;;;;;16.64;87.99;98601.69;7384747;19;20010;-70
2022/09/04 07:16:13;;;;;;;5.80;5.25;;;;;;;16.70;87.45;98610.81;7385900;19;20014;-70
2022/09/04 07:18:58;;;;;;;5.30;4.72;;;;;;;16.82;86.97;98602.13;7388343;19;20019;-70
2022/09/04 07:21:41;;;;;;;5.70;5.20;;;;;;;16.86;86.13;98618.63;7388364;19;20022;-70
2022/09/04 07:24:49;;;;;;;5.75;4.95;;;;;;;16.89;85.74;98616.38;7385269;19;20014;-70
2022/09/04 07:27:41;;;;;;;5.50;4.72;;;;;;;16.92;85.82;98615.19;7387909;19;20010;-70
2022/09/04 07:30:13;;;;;;;5.05;4.55;;;;;;;17.05;86.09;98622.50;7384105;19;20600;-70
2022/09/04 07:32:52;;;;;;;6.28;4.32;;;;;;;17.15;85.20;98622.19;7381520;19;20374;-70
2022/09/04 07:35:49;;;;;;;8.30;4.57;;;;;;;17.23;84.65;98624.72;7384543;19;20405;-70
2022/09/04 07:38:28;;;;;;;5.18;4.43;;;;;;;17.20;84.34;98609.06;7385792;19;20486;-70
2022/09/04 07:41:18;;;;;;;5.22;4.72;;;;;;;17.38;85.06;98613.94;7383031;19;20002;-70
2022/09/04 07:43:53;;;;;;;6.88;4.53;;;;;;;17.40;84.43;98612.72;7388077;19;20015;-70
2022/09/04 07:46:45;;;;;;;4.78;4.38;;;;;;;17.53;84.39;98622.69;7378368;19;20412;-70
2022/09/04 07:49:31;;;;;;;6.15;4.28;;;;;;;17.65;83.68;98620.31;7383477;19;20026;-70
2022/09/04 07:52:06;;;;;;;3.83;3.53;;;;;;;17.74;83.33;98635.19;7384273;19;20018;-70
2022/09/04 07:55:12;;;;;;;5.82;4.35;;;;;;;17.82;82.22;98627.03;7383632;19;20037;-70
2022/09/04 07:57:41;;;;;;;4.15;3.53;;;;;;;17.98;82.28;98629.44;7381146;19;20597;-70
2022/09/04 08:00:14;;;;;;;4.43;3.58;;;;;;;18.12;81.20;98638.38;7383373;19;20029;-70
2022/09/04 08:03:15;;;;;;;3.70;3.40;;;;;;;18.28;79.65;98637.22;7379438;19;20018;-70
2022/09/04 08:06:18;;;;;;;5.97;3.22;;;;;;;18.49;78.74;98630.91;7376681;19;20011;-70
2022/09/04 08:09:27;;;;;;;3.47;3.00;;;;;;;18.76;78.08;98634.53;7382537;19;20412;-70
2022/09/04 08:12:07;;;;;;;3.95;3.47;;;;;;;18.94;76.76;98638.50;7382624;19;20021;-70
2022/09/04 08:14:51;;;;;;;4.90;3.83;;;;;;;19.01;77.30;98647.38;7387342;19;20600;-70
2022/09/04 08:17:48;;;;;;;4.63;3.70;;;;;;;19.19;76.60;98646.78;7382330;19;20019;-70
2022/09/04 08:20:37;;;;;;;3.95;3.55;;;;;;;19.42;74.79;98649.06;7380902;19;20029;-70
2022/09/04 08:23:35;;;;;;;4.97;3.85;;;;;;;19.71;73.86;98653.22;7380696;19;20010;-70
2022/09/04 08:26:12;;;;;;;4.65;3.88;;;;;;;19.93;73.64;98653.81;7385235;19;20006;-70
2022/09/04 08:29:11;;;;;;;4.55;4.10;;;;;;;20.03;73.35;98656.88;7385525;19;20018;-70
2022/09/04 08:31:45;;;;;;;4.80;4.30;;;;;;;20.12;72.97;98660.19;7392707;19;20026;-70
2022/09/04 08:34:37;;;;;;;4.88;4.38;;;;;;;20.22;72.88;98663.28;7393565;19;20066;-70
2022/09/04 08:37:23;;;;;;;5.45;4.90;;;;;;;20.45;71.72;98660.09;7390143;19;20125;-70
2022/09/04 08:40:33;;;;;;;5.65;4.43;;;;;;;20.74;71.20;98668.69;7388836;19;20017;-70
2022/09/04 08:43:38;;;;;;;5.03;4.43;;;;;;;20.90;70.76;98662.81;7390731;19;20011;-70
2022/09/04 08:46:30;;;;;;;5.35;3.95;;;;;;;21.01;70.29;98662.13;7394271;19;20024;-70
2022/09/04 08:49:09;;;;;;;4.13;3.45;;;;;;;21.43;67.09;98670.59;7393167;19;20446;-70
2022/09/04 08:52:08;;;;;;;4.10;3.22;;;;;;;21.81;66.45;98669.66;7389475;19;22355;-70
2022/09/04 08:55:00;;;;;;;3.55;3.25;;;;;;;22.29;65.47;98677.06;7389476;19;20034;-70
2022/09/04 08:57:42;;;;;;;5.03;2.83;;;;;;;22.65;63.34;98667.31;7387810;19;20041;-70
2022/09/04 09:00:13;;;;;;;3.63;2.73;;;;;;;23.05;62.12;98664.13;7384409;19;20015;-70
2022/09/04 09:03:05;;;;;;;2.90;2.50;;;;;;;23.21;61.65;98666.16;7389352;19;20029;-70
2022/09/04 09:05:52;;;;;;;2.80;2.60;;;;;;;23.49;61.13;98663.91;7391936;19;20358;-70
2022/09/04 09:08:22;;;;;;;3.22;2.60;;;;;;;23.46;60.84;98662.47;7389421;19;20018;-70
2022/09/04 09:11:07;;;;;;;3.58;2.63;;;;;;;23.03;61.11;98662.72;7385235;19;20022;-70
2022/09/04 09:14:18;;;;;;;3.30;1.92;;;;;;;22.30;63.70;98670.66;7390054;19;20486;-70
2022/09/04 09:16:54;;;;;;;4.47;2.00;;;;;;;22.23;62.38;98672.56;7387524;19;20023;-70
2022/09/04 09:19:44;;;;;;;4.20;1.60;;;;;;;22.00;63.85;98667.81;7389188;19;20022;-70
2022/09/04 09:22:48;;;;;;;3.47;1.90;;;;;;;22.08;63.97;98670.19;7389648;19;20010;-70
2022/09/04 09:25:19;;;;;;;2.78;1.98;;;;;;;22.20;64.52;98669.53;7392583;19;20026;-70
2022/09/04 09:28:22;;;;;;;2.08;1.77;;;;;;;22.34;63.74;98663.75;7387879;19;20440;-70
2022/09/04 09:31:25;;;;;;;1.98;1.55;;;;;;;21.96;63.31;98665.75;7385980;19;20021;-71
2022/09/04 09:34:15;;;;;;;2.30;1.30;;;;;;;21.51;62.69;98657.88;7389386;19;20114;-70
2022/09/04 09:36:52;;;;;;;1.60;1.50;;;;;;;21.91;62.90;98656.50;7388313;19;20020;-71
2022/09/04 09:39:42;;;;;;;3.10;1.38;;;;;;;21.85;62.58;98654.69;7389478;19;20032;-70
2022/09/04 09:42:27;;;;;;;2.05;1.63;;;;;;;21.87;63.18;98657.97;7389741;19;20017;-71
2022/09/04 09:45:12;;;;;;;2.55;1.77;;;;;;;22.09;62.16;98658.41;7386414;19;20513;-71
2022/09/04 09:47:57;;;;;;;6.13;1.30;;;;;;;22.43;58.80;98652.66;7385133;19;20481;-71
2022/09/04 09:50:47;;;;;;;3.08;1.52;;;;;;;22.37;59.75;98651.69;7390218;19;20082;-70
2022/09/04 09:53:40;;;;;;;2.03;1.83;;;;;;;22.42;60.42;98648.31;7392686;19;20014;-70
2022/09/04 09:56:40;;;;;;;2.53;1.85;;;;;;;22.55;61.13;98642.75;7390892;19;20023;-70
2022/09/04 09:59:30;;;;;;;4.93;1.73;;;;;;;22.18;62.25;98653.53;7386691;19;20022;-70
2022/09/04 10:02:22;;;;;;;3.22;1.90;;;;;;;21.89;61.85;98652.38;7387053;19;20061;-70
2022/09/04 10:05:07;;;;;;;3.13;1.90;;;;;;;21.60;61.96;98652.00;7391770;19;20033;-70
2022/09/04 10:08:26;;;;;;;4.93;2.13;;;;;;;21.37;64.08;98651.75;7388537;19;20053;-70
2022/09/04 10:11:16;;;;;;;2.80;2.10;;;;;;;21.24;64.15;98650.78;7386736;19;20015;-70
2022/09/04 10:13:52;;;;;;;1.73;1.63;;;;;;;21.61;62.83;98653.66;7391389;19;20807;-70
2022/09/04 10:16:37;;;;;;;2.88;1.52;;;;;;;21.55;62.58;98651.84;7390296;19;20014;-70
2022/09/04 10:19:41;;;;;;;3.40;1.90;;;;;;;21.40;63.43;98654.84;7386746;19;20493;-71
2022/09/04 10:22:30;;;;;;;3.35;1.40;;;;;;;21.37;62.52;98649.88;7391181;19;20061;-71
2022/09/04 10:25:34;;;;;;;5.55;2.17;;;;;;;21.64;60.22;98647.00;7390032;19;20017;-70
2022/09/04 10:28:16;;;;;;;1.67;1.40;;;;;;;22.12;60.54;98638.25;7390241;19;20633;-70
2022/09/04 10:31:33;;;;;;;2.00;1.67;;;;;;;22.40;58.84;98628.84;7384714;19;20018;-71
2022/09/04 10:34:06;;;;;;;1.85;1.27;;;;;;;22.72;59.42;98622.22;7387611;19;20014;-71
2022/09/04 10:36:35;;;;;;;1.95;1.67;;;;;;;23.21;58.02;98633.78;7389196;19;20100;-70
2022/09/04 10:42:42;;;;;;;2.95;1.58;;;;;;;23.03;55.81;98624.94;7383106;19;20028;-70
2022/09/04 10:45:15;;;;;;;1.13;0.95;;;;;;;22.82;56.53;98628.94;7383758;19;20015;-70
2022/09/04 10:48:11;;;;;;;1.75;1.15;;;;;;;22.89;55.02;98637.75;7383857;19;20019;-70
2022/09/04 10:51:00;;;;;;;2.85;1.40;;;;;;;22.79;55.51;98631.03;7380688;19;20030;-70
2022/09/04 10:53:53;;;;;;;2.25;1.35;;;;;;;22.64;54.41;98630.59;7385711;19;20011;-70
2022/09/04 10:56:34;;;;;;;1.70;1.17;;;;;;;22.62;57.01;98629.19;7382653;19;20025;-70
2022/09/04 10:59:09;;;;;;;3.28;1.67;;;;;;;22.86;55.10;98638.22;7386441;19;20007;-70
2022/09/04 11:02:08;;;;;;;2.20;1.30;;;;;;;22.63;56.33;98628.97;7384693;19;20022;-70
2022/09/04 11:04:43;;;;;;;2.90;1.25;;;;;;;22.18;57.84;98637.34;7384639;19;20034;-70
2022/09/04 11:07:26;;;;;;;2.55;1.38;;;;;;;22.09;57.47;98627.91;7384806;19;20049;-70
2022/09/04 11:10:12;;;;;;;2.83;1.80;;;;;;;22.17;56.57;98630.34;7384125;19;20026;-70
2022/09/04 11:13:02;;;;;;;1.33;1.08;;;;;;;22.43;53.39;98623.81;7382917;19;20025;-70
2022/09/04 11:15:54;;;;;;;1.65;1.30;;;;;;;22.76;54.28;98626.09;7382773;19;20017;-70
2022/09/04 11:19:03;;;;;;;1.40;1.30;;;;;;;22.82;55.28;98623.53;7387189;19;20020;-70
2022/09/04 11:21:38;;;;;;;1.48;1.15;;;;;;;22.85;55.21;98623.88;7387172;19;20021;-71
2022/09/04 11:24:22;;;;;;;1.00;0.90;;;;;;;23.08;52.50;98623.19;7384391;19;20018;-70
2022/09/04 11:27:25;;;;;;;3.30;1.23;;;;;;;23.18;51.13;98614.53;7381317;19;20097;-70
2022/09/04 11:30:10;;;;;;;3.35;1.10;;;;;;;23.32;50.84;98612.44;7381167;19;20018;-70
2022/09/04 11:33:02;;;;;;;1.73;1.15;;;;;;;23.37;49.10;98602.59;7387109;19;20018;-70
2022/09/04 11:35:43;;;;;;;1.50;1.05;;;;;;;23.31;49.02;98600.81;7387823;19;20045;-70
2022/09/04 11:38:42;;;;;;;1.92;1.10;;;;;;;23.46;48.33;98608.47;7387395;19;20010;-70
2022/09/04 11:41:56;;;;;;;1.80;1.05;;;;;;;23.51;49.20;98608.56;7379029;19;20018;-70
2022/09/04 11:45:04;;;;;;;1.42;1.00;;;;;;;23.73;49.65;98599.94;7380604;19;20830;-70
2022/09/04 11:47:58;;;;;;;4.43;1.10;;;;;;;23.62;49.44;98602.38;7382616;19;20175;-70
2022/09/04 11:50:25;;;;;;;1.52;1.10;;;;;;;23.88;49.40;98605.66;7384291;19;20434;-70
2022/09/04 11:53:18;;;;;;;1.23;0.90;;;;;;;24.15;47.00;98600.59;7383390;19;20489;-70
2022/09/04 11:56:07;;;;;;;1.38;1.15;;;;;;;24.22;45.90;98608.56;7376106;19;20022;-70
2022/09/04 11:58:45;;;;;;;1.75;1.08;;;;;;;23.78;47.12;98606.28;7384633;19;20021;-70
2022/09/04 12:01:25;;;;;;;2.90;1.10;;;;;;;23.82;48.48;98603.91;7381227;19;20384;-71
2022/09/04 12:04:03;;;;;;;1.38;0.98;;;;;;;23.81;48.39;98610.41;7380328;19;20509;-70
2022/09/04 12:06:52;;;;;;;2.28;1.17;;;;;;;23.90;48.41;98605.44;7383346;19;20015;-71
2022/09/04 12:09:30;;;;;;;1.60;0.95;;;;;;;23.98;46.47;98607.78;7383496;19;20800;-70
2022/09/04 12:12:06;;;;;;;2.80;0.98;;;;;;;24.04;47.44;98606.81;7383679;19;20023;-71
2022/09/04 12:14:47;;;;;;;1.35;1.10;;;;;;;23.76;47.79;98608.38;7379670;19;20081;-71
2022/09/04 12:17:33;;;;;;;2.40;1.23;;;;;;;23.93;46.13;98605.78;7383393;19;20009;-70
2022/09/04 12:20:22;;;;;;;1.73;1.10;;;;;;;23.99;44.08;98615.66;7382724;19;20014;-70
2022/09/04 12:23:17;;;;;;;1.42;1.13;;;;;;;24.10;44.59;98606.72;7382242;19;20084;-71
2022/09/04 12:25:56;;;;;;;1.23;1.00;;;;;;;24.21;43.04;98617.75;7379400;19;20022;-70
2022/09/04 12:28:44;;;;;;;2.50;1.10;;;;;;;24.27;43.30;98612.19;7385022;19;20028;-71
2022/09/04 12:31:34;;;;;;;1.80;1.05;;;;;;;24.46;45.32;98606.66;7380954;19;20173;-71
2022/09/04 12:34:27;;;;;;;3.05;1.08;;;;;;;24.60;44.32;98597.19;7382623;19;20015;-71
2022/09/04 12:37:10;;;;;;;1.75;1.00;;;;;;;24.84;41.72;98603.34;7376864;19;20349;-71
2022/09/04 12:39:51;;;;;;;2.42;1.10;;;;;;;24.92;45.58;98597.53;7380543;19;20029;-71
2022/09/04 12:42:25;;;;;;;1.63;1.27;;;;;;;24.95;46.22;98604.34;7383872;19;20055;-70
2022/09/04 12:45:01;;;;;;;1.67;1.10;;;;;;;25.14;42.02;98603.03;7383995;19;20015;-71
2022/09/04 12:47:51;;;;;;;0.95;0.80;;;;;;;25.05;42.32;98595.59;7383298;19;20014;-71
2022/09/04 12:50:31;;;;;;;7.38;1.20;;;;;;;24.91;45.25;98604.00;7382679;19;20079;-71
2022/09/04 12:53:11;;;;;;;1.48;0.88;;;;;;;24.96;42.82;98611.38;7384696;19;20010;-71
2022/09/04 12:55:49;;;;;;;3.40;1.00;;;;;;;24.93;45.48;98606.47;7382133;19;20021;-71
2022/09/04 12:58:33;;;;;;;1.65;1.30;;;;;;;25.03;44.00;98601.22;7382479;19;20027;-70
2022/09/04 13:01:09;;;;;;;1.25;1.00;;;;;;;24.87;42.96;98600.13;7379784;19;20033;-71
2022/09/04 13:03:44;;;;;;;1.88;0.80;;;;;;;25.00;43.26;98606.31;7384184;19;20019;-71
2022/09/04 13:06:38;;;;;;;2.20;1.25;;;;;;;24.96;44.68;98601.41;7299142;19;71581;-70